sensor_id;sensor_type;location;lat;lon;timestamp;temperature;humidity
19168;DHT22;9716;53.114;18.040;2023-01-16T00:00:30;4.40;99.90
19168;DHT22;9716;53.114;18.040;2023-01-16T00:03:19;4.40;99.90
19168;DHT22;9716;53.114;18.040;2023-01-16T00:05:47;4.30;99.90
19168;DHT22;9716;53.114;18.040;2023-01-16T00:08:16;4.30;99.90
19168;DHT22;9716;53.114;18.040;2023-01-16T00:10:44;4.30;99.90
19168;DHT22;9716;53.114;18.040;2023-01-16T00:13:13;4.20;99.90
19168;DHT22;9716;53.114;18.040;2023-01-16T00:15:46;4.20;99.90
19168;DHT22;9716;53.114;18.040;2023-01-16T00:18:15;4.10;99.90
19168;DHT22;9716;53.114;18.040;2023-01-16T00:20:43;4.20;99.90
19168;DHT22;9716;53.114;18.040;2023-01-16T00:23:12;4.10;99.90
19168;DHT22;9716;53.114;18.040;2023-01-16T00:25:41;4.10;99.90
19168;DHT22;9716;53.114;18.040;2023-01-16T00:28:10;4.10;99.90
19168;DHT22;9716;53.114;18.040;2023-01-16T00:30:39;4.10;99.90
19168;DHT22;9716;53.114;18.040;2023-01-16T00:33:09;4.10;99.90
19168;DHT22;9716;53.114;18.040;2023-01-16T00:35:37;4.10;99.90
19168;DHT22;9716;53.114;18.040;2023-01-16T00:38:07;4.10;99.90
19168;DHT22;9716;53.114;18.040;2023-01-16T00:40:35;4.10;99.90
19168;DHT22;9716;53.114;18.040;2023-01-16T00:43:04;4.10;99.90
19168;DHT22;9716;53.114;18.040;2023-01-16T00:45:32;4.10;99.90
19168;DHT22;9716;53.114;18.040;2023-01-16T00:48:01;4.10;99.90
19168;DHT22;9716;53.114;18.040;2023-01-16T00:50:31;4.10;99.90
19168;DHT22;9716;53.114;18.040;2023-01-16T00:53:00;4.10;99.90
19168;DHT22;9716;53.114;18.040;2023-01-16T00:55:28;4.00;99.90
19168;DHT22;9716;53.114;18.040;2023-01-16T00:57:57;4.00;99.90
19168;DHT22;9716;53.114;18.040;2023-01-16T01:00:25;4.00;99.90
19168;DHT22;9716;53.114;18.040;2023-01-16T01:02:54;4.00;99.90
19168;DHT22;9716;53.114;18.040;2023-01-16T01:05:22;4.00;99.90
19168;DHT22;9716;53.114;18.040;2023-01-16T01:07:52;4.00;99.90
19168;DHT22;9716;53.114;18.040;2023-01-16T01:10:21;4.00;99.90
19168;DHT22;9716;53.114;18.040;2023-01-16T01:12:53;4.00;99.90
19168;DHT22;9716;53.114;18.040;2023-01-16T01:15:21;4.00;99.90
19168;DHT22;9716;53.114;18.040;2023-01-16T01:17:50;4.00;99.90
19168;DHT22;9716;53.114;18.040;2023-01-16T01:20:18;4.00;99.90
19168;DHT22;9716;53.114;18.040;2023-01-16T01:22:47;3.90;99.90
19168;DHT22;9716;53.114;18.040;2023-01-16T01:25:17;3.90;99.90
19168;DHT22;9716;53.114;18.040;2023-01-16T01:27:45;3.90;99.90
19168;DHT22;9716;53.114;18.040;2023-01-16T01:30:13;3.90;99.90
19168;DHT22;9716;53.114;18.040;2023-01-16T01:32:42;3.90;99.90
19168;DHT22;9716;53.114;18.040;2023-01-16T01:35:11;3.90;99.90
19168;DHT22;9716;53.114;18.040;2023-01-16T01:37:39;3.80;99.90
19168;DHT22;9716;53.114;18.040;2023-01-16T01:40:09;3.90;99.90
19168;DHT22;9716;53.114;18.040;2023-01-16T01:42:39;3.80;99.90
19168;DHT22;9716;53.114;18.040;2023-01-16T01:45:17;3.90;99.90
19168;DHT22;9716;53.114;18.040;2023-01-16T01:47:50;3.90;99.90
19168;DHT22;9716;53.114;18.040;2023-01-16T01:50:38;3.90;99.90
19168;DHT22;9716;53.114;18.040;2023-01-16T01:53:11;3.90;99.90
19168;DHT22;9716;53.114;18.040;2023-01-16T01:55:42;3.90;99.90
19168;DHT22;9716;53.114;18.040;2023-01-16T01:58:16;3.90;99.90
19168;DHT22;9716;53.114;18.040;2023-01-16T02:00:50;3.90;99.90
19168;DHT22;9716;53.114;18.040;2023-01-16T02:03:23;3.90;99.90
19168;DHT22;9716;53.114;18.040;2023-01-16T02:05:56;3.90;99.90
19168;DHT22;9716;53.114;18.040;2023-01-16T02:08:29;3.90;99.90
19168;DHT22;9716;53.114;18.040;2023-01-16T02:11:03;3.90;99.90
19168;DHT22;9716;53.114;18.040;2023-01-16T02:13:37;3.90;99.90
19168;DHT22;9716;53.114;18.040;2023-01-16T02:16:06;3.90;99.90
19168;DHT22;9716;53.114;18.040;2023-01-16T02:18:52;3.90;99.90
19168;DHT22;9716;53.114;18.040;2023-01-16T02:25:09;3.90;99.90
19168;DHT22;9716;53.114;18.040;2023-01-16T02:28:05;3.90;99.90
19168;DHT22;9716;53.114;18.040;2023-01-16T02:30:56;3.90;99.90
19168;DHT22;9716;53.114;18.040;2023-01-16T02:33:42;3.90;99.90
19168;DHT22;9716;53.114;18.040;2023-01-16T02:36:19;3.90;99.90
19168;DHT22;9716;53.114;18.040;2023-01-16T02:38:58;3.90;99.90
19168;DHT22;9716;53.114;18.040;2023-01-16T02:41:34;3.90;99.90
19168;DHT22;9716;53.114;18.040;2023-01-16T02:44:13;3.90;99.90
19168;DHT22;9716;53.114;18.040;2023-01-16T02:46:58;3.90;99.90
19168;DHT22;9716;53.114;18.040;2023-01-16T02:49:39;3.80;99.90
19168;DHT22;9716;53.114;18.040;2023-01-16T02:52:12;3.80;99.90
19168;DHT22;9716;53.114;18.040;2023-01-16T02:54:46;3.70;99.90
19168;DHT22;9716;53.114;18.040;2023-01-16T02:57:17;3.80;99.90
19168;DHT22;9716;53.114;18.040;2023-01-16T02:59:47;3.70;99.90
19168;DHT22;9716;53.114;18.040;2023-01-16T03:02:18;3.70;99.90
19168;DHT22;9716;53.114;18.040;2023-01-16T03:04:48;3.70;99.90
19168;DHT22;9716;53.114;18.040;2023-01-16T03:07:39;3.70;99.90
19168;DHT22;9716;53.114;18.040;2023-01-16T03:10:26;3.60;99.90
19168;DHT22;9716;53.114;18.040;2023-01-16T03:13:10;3.70;99.90
19168;DHT22;9716;53.114;18.040;2023-01-16T03:15:47;3.60;99.90
19168;DHT22;9716;53.114;18.040;2023-01-16T03:18:23;3.60;99.90
19168;DHT22;9716;53.114;18.040;2023-01-16T03:21:00;3.60;99.90
19168;DHT22;9716;53.114;18.040;2023-01-16T03:23:45;3.60;99.90
19168;DHT22;9716;53.114;18.040;2023-01-16T03:26:20;3.60;99.90
19168;DHT22;9716;53.114;18.040;2023-01-16T03:28:58;3.70;99.90
19168;DHT22;9716;53.114;18.040;2023-01-16T03:31:37;3.70;99.90
19168;DHT22;9716;53.114;18.040;2023-01-16T03:34:14;3.70;99.90
19168;DHT22;9716;53.114;18.040;2023-01-16T03:36:51;3.70;99.90
19168;DHT22;9716;53.114;18.040;2023-01-16T03:39:25;3.80;99.90
19168;DHT22;9716;53.114;18.040;2023-01-16T03:42:03;3.80;99.90
19168;DHT22;9716;53.114;18.040;2023-01-16T03:44:35;3.80;99.90
19168;DHT22;9716;53.114;18.040;2023-01-16T03:47:08;3.80;99.90
19168;DHT22;9716;53.114;18.040;2023-01-16T03:49:42;3.80;99.90
19168;DHT22;9716;53.114;18.040;2023-01-16T03:52:15;3.80;99.90
19168;DHT22;9716;53.114;18.040;2023-01-16T03:54:50;3.80;99.90
19168;DHT22;9716;53.114;18.040;2023-01-16T03:57:24;3.80;99.90
19168;DHT22;9716;53.114;18.040;2023-01-16T03:59:54;3.80;99.90
19168;DHT22;9716;53.114;18.040;2023-01-16T04:02:26;3.80;99.90
19168;DHT22;9716;53.114;18.040;2023-01-16T04:05:00;3.80;99.90
19168;DHT22;9716;53.114;18.040;2023-01-16T04:07:34;3.70;99.90
19168;DHT22;9716;53.114;18.040;2023-01-16T04:10:07;3.70;99.90
19168;DHT22;9716;53.114;18.040;2023-01-16T04:12:40;3.70;99.90
19168;DHT22;9716;53.114;18.040;2023-01-16T04:15:11;3.70;99.90
19168;DHT22;9716;53.114;18.040;2023-01-16T04:17:39;3.70;99.90
19168;DHT22;9716;53.114;18.040;2023-01-16T04:20:11;3.70;99.90
19168;DHT22;9716;53.114;18.040;2023-01-16T04:22:40;3.70;99.90
19168;DHT22;9716;53.114;18.040;2023-01-16T04:25:09;3.70;99.90
19168;DHT22;9716;53.114;18.040;2023-01-16T04:27:38;3.70;99.90
19168;DHT22;9716;53.114;18.040;2023-01-16T04:30:08;3.70;99.90
19168;DHT22;9716;53.114;18.040;2023-01-16T04:32:36;3.70;99.90
19168;DHT22;9716;53.114;18.040;2023-01-16T04:35:06;3.70;99.90
19168;DHT22;9716;53.114;18.040;2023-01-16T04:37:36;3.70;99.90
19168;DHT22;9716;53.114;18.040;2023-01-16T04:40:06;3.70;99.90
19168;DHT22;9716;53.114;18.040;2023-01-16T04:42:35;3.70;99.90
19168;DHT22;9716;53.114;18.040;2023-01-16T04:45:05;3.70;99.90
19168;DHT22;9716;53.114;18.040;2023-01-16T04:47:33;3.70;99.90
19168;DHT22;9716;53.114;18.040;2023-01-16T04:50:02;3.60;99.90
19168;DHT22;9716;53.114;18.040;2023-01-16T04:52:30;3.60;99.90
19168;DHT22;9716;53.114;18.040;2023-01-16T04:55:00;3.60;99.90
19168;DHT22;9716;53.114;18.040;2023-01-16T04:57:28;3.60;99.90
19168;DHT22;9716;53.114;18.040;2023-01-16T04:59:57;3.60;99.90
19168;DHT22;9716;53.114;18.040;2023-01-16T05:02:25;3.60;99.90
19168;DHT22;9716;53.114;18.040;2023-01-16T05:04:54;3.50;99.90
19168;DHT22;9716;53.114;18.040;2023-01-16T05:07:22;3.50;99.90
19168;DHT22;9716;53.114;18.040;2023-01-16T05:09:53;3.50;99.90
19168;DHT22;9716;53.114;18.040;2023-01-16T05:12:23;3.50;99.90
19168;DHT22;9716;53.114;18.040;2023-01-16T05:14:51;3.40;99.90
19168;DHT22;9716;53.114;18.040;2023-01-16T05:17:20;3.40;99.90
19168;DHT22;9716;53.114;18.040;2023-01-16T05:19:52;3.40;99.90
19168;DHT22;9716;53.114;18.040;2023-01-16T05:22:20;3.40;99.90
19168;DHT22;9716;53.114;18.040;2023-01-16T05:24:49;3.30;99.90
19168;DHT22;9716;53.114;18.040;2023-01-16T05:27:17;3.30;99.90
19168;DHT22;9716;53.114;18.040;2023-01-16T05:29:47;3.30;99.90
19168;DHT22;9716;53.114;18.040;2023-01-16T05:32:15;3.30;99.90
19168;DHT22;9716;53.114;18.040;2023-01-16T05:34:43;3.20;99.90
19168;DHT22;9716;53.114;18.040;2023-01-16T05:37:11;3.20;99.90
19168;DHT22;9716;53.114;18.040;2023-01-16T05:39:40;3.20;99.90
19168;DHT22;9716;53.114;18.040;2023-01-16T05:42:08;3.20;99.90
19168;DHT22;9716;53.114;18.040;2023-01-16T05:44:50;3.10;99.90
19168;DHT22;9716;53.114;18.040;2023-01-16T05:47:19;3.10;99.90
19168;DHT22;9716;53.114;18.040;2023-01-16T05:49:47;3.10;99.90
19168;DHT22;9716;53.114;18.040;2023-01-16T05:52:16;3.10;99.90
19168;DHT22;9716;53.114;18.040;2023-01-16T05:54:44;3.10;99.90
19168;DHT22;9716;53.114;18.040;2023-01-16T05:57:12;3.00;99.90
19168;DHT22;9716;53.114;18.040;2023-01-16T05:59:41;3.00;99.90
19168;DHT22;9716;53.114;18.040;2023-01-16T06:02:14;3.00;99.90
19168;DHT22;9716;53.114;18.040;2023-01-16T06:04:42;2.90;99.90
19168;DHT22;9716;53.114;18.040;2023-01-16T06:07:11;2.90;99.90
19168;DHT22;9716;53.114;18.040;2023-01-16T06:09:40;2.90;99.90
19168;DHT22;9716;53.114;18.040;2023-01-16T06:12:13;2.90;99.90
19168;DHT22;9716;53.114;18.040;2023-01-16T06:14:42;2.80;99.90
19168;DHT22;9716;53.114;18.040;2023-01-16T06:17:16;2.80;99.90
19168;DHT22;9716;53.114;18.040;2023-01-16T06:19:45;2.80;99.90
19168;DHT22;9716;53.114;18.040;2023-01-16T06:22:14;2.80;99.90
19168;DHT22;9716;53.114;18.040;2023-01-16T06:24:43;2.80;99.90
19168;DHT22;9716;53.114;18.040;2023-01-16T06:27:11;2.80;99.90
19168;DHT22;9716;53.114;18.040;2023-01-16T06:29:39;2.80;99.90
19168;DHT22;9716;53.114;18.040;2023-01-16T06:32:08;2.70;99.90
19168;DHT22;9716;53.114;18.040;2023-01-16T06:34:38;2.70;99.90
19168;DHT22;9716;53.114;18.040;2023-01-16T06:37:06;2.70;99.90
19168;DHT22;9716;53.114;18.040;2023-01-16T06:39:35;2.70;99.90
19168;DHT22;9716;53.114;18.040;2023-01-16T06:42:03;2.60;99.90
19168;DHT22;9716;53.114;18.040;2023-01-16T06:44:32;2.70;99.90
19168;DHT22;9716;53.114;18.040;2023-01-16T06:47:01;2.70;99.90
19168;DHT22;9716;53.114;18.040;2023-01-16T06:49:30;2.70;99.90
19168;DHT22;9716;53.114;18.040;2023-01-16T06:52:00;2.60;99.90
19168;DHT22;9716;53.114;18.040;2023-01-16T06:54:29;2.60;99.90
19168;DHT22;9716;53.114;18.040;2023-01-16T06:56:57;2.60;99.90
19168;DHT22;9716;53.114;18.040;2023-01-16T06:59:26;2.60;99.90
19168;DHT22;9716;53.114;18.040;2023-01-16T07:01:54;2.60;99.90
19168;DHT22;9716;53.114;18.040;2023-01-16T07:04:23;2.60;99.90
19168;DHT22;9716;53.114;18.040;2023-01-16T07:06:51;2.60;99.90
19168;DHT22;9716;53.114;18.040;2023-01-16T07:09:21;2.60;99.90
19168;DHT22;9716;53.114;18.040;2023-01-16T07:11:55;2.60;99.90
19168;DHT22;9716;53.114;18.040;2023-01-16T07:14:24;2.70;99.90
19168;DHT22;9716;53.114;18.040;2023-01-16T07:17:11;2.70;99.90
19168;DHT22;9716;53.114;18.040;2023-01-16T07:19:57;2.80;99.90
19168;DHT22;9716;53.114;18.040;2023-01-16T07:22:43;2.80;99.90
19168;DHT22;9716;53.114;18.040;2023-01-16T07:25:16;2.80;99.90
19168;DHT22;9716;53.114;18.040;2023-01-16T07:27:48;2.80;99.90
19168;DHT22;9716;53.114;18.040;2023-01-16T07:30:18;2.90;99.90
19168;DHT22;9716;53.114;18.040;2023-01-16T07:32:48;2.90;99.90
19168;DHT22;9716;53.114;18.040;2023-01-16T07:35:17;3.00;99.90
19168;DHT22;9716;53.114;18.040;2023-01-16T07:37:45;3.00;99.90
19168;DHT22;9716;53.114;18.040;2023-01-16T07:40:15;3.10;99.90
19168;DHT22;9716;53.114;18.040;2023-01-16T07:42:43;3.10;99.90
19168;DHT22;9716;53.114;18.040;2023-01-16T07:45:12;3.20;99.90
19168;DHT22;9716;53.114;18.040;2023-01-16T07:47:40;3.30;99.90
19168;DHT22;9716;53.114;18.040;2023-01-16T07:50:09;3.40;99.90
19168;DHT22;9716;53.114;18.040;2023-01-16T07:52:37;3.50;99.90
19168;DHT22;9716;53.114;18.040;2023-01-16T07:55:06;3.60;99.90
19168;DHT22;9716;53.114;18.040;2023-01-16T07:57:37;3.70;99.90
19168;DHT22;9716;53.114;18.040;2023-01-16T08:00:07;3.70;99.90
19168;DHT22;9716;53.114;18.040;2023-01-16T08:02:37;3.90;99.90
19168;DHT22;9716;53.114;18.040;2023-01-16T08:05:07;3.90;99.90
19168;DHT22;9716;53.114;18.040;2023-01-16T08:07:35;4.00;99.90
19168;DHT22;9716;53.114;18.040;2023-01-16T08:10:05;4.10;99.90
19168;DHT22;9716;53.114;18.040;2023-01-16T08:12:33;4.20;99.90
19168;DHT22;9716;53.114;18.040;2023-01-16T08:15:04;4.20;99.90
19168;DHT22;9716;53.114;18.040;2023-01-16T08:17:38;4.30;99.90
19168;DHT22;9716;53.114;18.040;2023-01-16T08:20:08;4.40;99.90
19168;DHT22;9716;53.114;18.040;2023-01-16T08:22:42;4.40;99.90
19168;DHT22;9716;53.114;18.040;2023-01-16T08:25:11;4.50;99.90
19168;DHT22;9716;53.114;18.040;2023-01-16T08:27:40;4.60;99.90
19168;DHT22;9716;53.114;18.040;2023-01-16T08:30:12;4.60;99.90
19168;DHT22;9716;53.114;18.040;2023-01-16T08:32:41;4.70;99.90
19168;DHT22;9716;53.114;18.040;2023-01-16T08:35:10;4.80;99.90
19168;DHT22;9716;53.114;18.040;2023-01-16T08:37:38;4.80;99.90
19168;DHT22;9716;53.114;18.040;2023-01-16T08:40:08;4.90;99.90
19168;DHT22;9716;53.114;18.040;2023-01-16T08:42:37;4.90;99.90
19168;DHT22;9716;53.114;18.040;2023-01-16T08:45:24;5.00;99.90
19168;DHT22;9716;53.114;18.040;2023-01-16T08:48:10;5.10;99.90
19168;DHT22;9716;53.114;18.040;2023-01-16T08:50:56;5.20;99.90
19168;DHT22;9716;53.114;18.040;2023-01-16T08:53:42;5.40;99.90
19168;DHT22;9716;53.114;18.040;2023-01-16T08:56:11;5.50;99.90
19168;DHT22;9716;53.114;18.040;2023-01-16T08:58:39;5.60;99.90
19168;DHT22;9716;53.114;18.040;2023-01-16T09:01:09;5.70;99.90
19168;DHT22;9716;53.114;18.040;2023-01-16T09:03:37;5.80;99.90
19168;DHT22;9716;53.114;18.040;2023-01-16T09:06:06;5.90;99.90
19168;DHT22;9716;53.114;18.040;2023-01-16T09:08:35;6.00;99.90
19168;DHT22;9716;53.114;18.040;2023-01-16T09:11:03;6.10;99.90
19168;DHT22;9716;53.114;18.040;2023-01-16T09:13:49;6.20;99.90
19168;DHT22;9716;53.114;18.040;2023-01-16T09:16:21;6.30;99.90
19168;DHT22;9716;53.114;18.040;2023-01-16T09:18:50;6.30;99.90
19168;DHT22;9716;53.114;18.040;2023-01-16T09:21:19;6.40;99.90
19168;DHT22;9716;53.114;18.040;2023-01-16T09:23:50;6.50;99.90
19168;DHT22;9716;53.114;18.040;2023-01-16T09:26:19;6.50;99.90
19168;DHT22;9716;53.114;18.040;2023-01-16T09:28:48;6.60;99.90
19168;DHT22;9716;53.114;18.040;2023-01-16T09:31:16;6.70;99.90
19168;DHT22;9716;53.114;18.040;2023-01-16T09:33:47;6.70;99.90
19168;DHT22;9716;53.114;18.040;2023-01-16T09:36:16;6.80;99.90
19168;DHT22;9716;53.114;18.040;2023-01-16T09:38:45;6.90;99.90
19168;DHT22;9716;53.114;18.040;2023-01-16T09:41:15;7.00;99.90
19168;DHT22;9716;53.114;18.040;2023-01-16T09:44:07;7.10;99.90
19168;DHT22;9716;53.114;18.040;2023-01-16T09:46:39;7.20;99.90
19168;DHT22;9716;53.114;18.040;2023-01-16T09:49:18;7.30;99.90
19168;DHT22;9716;53.114;18.040;2023-01-16T09:51:50;7.30;99.90
19168;DHT22;9716;53.114;18.040;2023-01-16T09:54:41;7.40;99.90
19168;DHT22;9716;53.114;18.040;2023-01-16T09:57:32;7.50;99.90
19168;DHT22;9716;53.114;18.040;2023-01-16T10:00:20;7.50;99.90
19168;DHT22;9716;53.114;18.040;2023-01-16T10:02:51;7.50;99.90
19168;DHT22;9716;53.114;18.040;2023-01-16T10:05:22;7.40;99.90
19168;DHT22;9716;53.114;18.040;2023-01-16T10:07:58;7.40;99.90
19168;DHT22;9716;53.114;18.040;2023-01-16T10:10:39;7.40;99.90
19168;DHT22;9716;53.114;18.040;2023-01-16T10:13:20;7.30;99.90
19168;DHT22;9716;53.114;18.040;2023-01-16T10:15:56;7.20;99.90
19168;DHT22;9716;53.114;18.040;2023-01-16T10:18:35;7.10;99.90
19168;DHT22;9716;53.114;18.040;2023-01-16T10:24:11;7.10;99.90
19168;DHT22;9716;53.114;18.040;2023-01-16T10:26:51;7.10;99.90
19168;DHT22;9716;53.114;18.040;2023-01-16T10:29:25;7.10;99.90
19168;DHT22;9716;53.114;18.040;2023-01-16T10:32:00;7.20;99.90
19168;DHT22;9716;53.114;18.040;2023-01-16T10:34:33;7.20;99.90
19168;DHT22;9716;53.114;18.040;2023-01-16T10:37:05;7.20;99.90
19168;DHT22;9716;53.114;18.040;2023-01-16T10:39:36;7.30;99.90
19168;DHT22;9716;53.114;18.040;2023-01-16T10:42:12;7.20;99.90
19168;DHT22;9716;53.114;18.040;2023-01-16T10:45:09;7.20;99.90
19168;DHT22;9716;53.114;18.040;2023-01-16T10:47:57;7.20;99.90
19168;DHT22;9716;53.114;18.040;2023-01-16T10:50:43;7.20;99.90
19168;DHT22;9716;53.114;18.040;2023-01-16T10:53:14;7.20;99.90
19168;DHT22;9716;53.114;18.040;2023-01-16T10:55:46;7.20;99.90
19168;DHT22;9716;53.114;18.040;2023-01-16T10:58:23;7.30;99.90
19168;DHT22;9716;53.114;18.040;2023-01-16T11:00:58;7.30;99.90
19168;DHT22;9716;53.114;18.040;2023-01-16T11:03:33;7.40;99.90
19168;DHT22;9716;53.114;18.040;2023-01-16T11:06:08;7.50;99.90
19168;DHT22;9716;53.114;18.040;2023-01-16T11:08:38;7.50;99.90
19168;DHT22;9716;53.114;18.040;2023-01-16T11:11:11;7.50;99.90
19168;DHT22;9716;53.114;18.040;2023-01-16T11:14:10;7.60;99.90
19168;DHT22;9716;53.114;18.040;2023-01-16T11:17:24;7.60;99.90
19168;DHT22;9716;53.114;18.040;2023-01-16T11:20:14;7.50;99.90
19168;DHT22;9716;53.114;18.040;2023-01-16T11:22:47;7.50;99.90
19168;DHT22;9716;53.114;18.040;2023-01-16T11:25:17;7.50;99.90
19168;DHT22;9716;53.114;18.040;2023-01-16T11:27:49;7.50;99.90
19168;DHT22;9716;53.114;18.040;2023-01-16T11:30:21;7.50;99.90
19168;DHT22;9716;53.114;18.040;2023-01-16T11:32:53;7.40;99.90
19168;DHT22;9716;53.114;18.040;2023-01-16T11:35:33;7.40;99.90
19168;DHT22;9716;53.114;18.040;2023-01-16T11:38:04;7.40;99.90
19168;DHT22;9716;53.114;18.040;2023-01-16T11:40:36;7.40;99.90
19168;DHT22;9716;53.114;18.040;2023-01-16T11:43:14;7.40;99.90
19168;DHT22;9716;53.114;18.040;2023-01-16T11:46:05;7.50;99.90
19168;DHT22;9716;53.114;18.040;2023-01-16T11:48:41;7.60;99.90
19168;DHT22;9716;53.114;18.040;2023-01-16T11:51:18;7.60;99.90
19168;DHT22;9716;53.114;18.040;2023-01-16T11:53:49;7.60;99.90
19168;DHT22;9716;53.114;18.040;2023-01-16T11:59:35;7.60;99.90
19168;DHT22;9716;53.114;18.040;2023-01-16T12:02:18;7.70;99.90
19168;DHT22;9716;53.114;18.040;2023-01-16T12:04:55;7.70;99.90
19168;DHT22;9716;53.114;18.040;2023-01-16T12:07:50;7.70;99.90
19168;DHT22;9716;53.114;18.040;2023-01-16T12:10:30;7.80;99.90
19168;DHT22;9716;53.114;18.040;2023-01-16T12:13:06;7.90;99.90
19168;DHT22;9716;53.114;18.040;2023-01-16T12:16:02;7.90;99.90
19168;DHT22;9716;53.114;18.040;2023-01-16T12:18:37;8.00;99.90
19168;DHT22;9716;53.114;18.040;2023-01-16T12:21:22;8.00;99.90
19168;DHT22;9716;53.114;18.040;2023-01-16T12:24:02;8.10;99.90
19168;DHT22;9716;53.114;18.040;2023-01-16T12:26:39;8.10;99.90
19168;DHT22;9716;53.114;18.040;2023-01-16T12:29:21;8.10;99.90
19168;DHT22;9716;53.114;18.040;2023-01-16T12:32:11;8.10;99.90
19168;DHT22;9716;53.114;18.040;2023-01-16T12:35:00;8.20;99.90
19168;DHT22;9716;53.114;18.040;2023-01-16T12:40:31;8.10;99.90
19168;DHT22;9716;53.114;18.040;2023-01-16T12:43:11;8.10;99.90
19168;DHT22;9716;53.114;18.040;2023-01-16T12:45:51;8.00;99.90
19168;DHT22;9716;53.114;18.040;2023-01-16T12:48:42;8.00;99.90
19168;DHT22;9716;53.114;18.040;2023-01-16T12:51:32;7.90;99.90
19168;DHT22;9716;53.114;18.040;2023-01-16T12:54:19;7.80;99.90
19168;DHT22;9716;53.114;18.040;2023-01-16T12:57:03;7.70;99.90
19168;DHT22;9716;53.114;18.040;2023-01-16T12:59:38;7.60;99.90
19168;DHT22;9716;53.114;18.040;2023-01-16T13:02:19;7.50;99.90
19168;DHT22;9716;53.114;18.040;2023-01-16T13:04:53;7.40;99.90
19168;DHT22;9716;53.114;18.040;2023-01-16T13:07:25;7.30;99.90
19168;DHT22;9716;53.114;18.040;2023-01-16T13:10:01;7.20;99.90
19168;DHT22;9716;53.114;18.040;2023-01-16T13:12:45;7.10;99.90
19168;DHT22;9716;53.114;18.040;2023-01-16T13:15:35;7.10;99.90
19168;DHT22;9716;53.114;18.040;2023-01-16T13:18:13;7.00;99.90
19168;DHT22;9716;53.114;18.040;2023-01-16T13:20:47;7.00;99.90
19168;DHT22;9716;53.114;18.040;2023-01-16T13:23:19;7.00;99.90
19168;DHT22;9716;53.114;18.040;2023-01-16T13:25:54;6.90;99.90
19168;DHT22;9716;53.114;18.040;2023-01-16T13:28:29;6.90;99.90
19168;DHT22;9716;53.114;18.040;2023-01-16T13:31:01;6.90;99.90
19168;DHT22;9716;53.114;18.040;2023-01-16T13:33:35;6.80;99.90
19168;DHT22;9716;53.114;18.040;2023-01-16T13:36:20;6.80;99.90
19168;DHT22;9716;53.114;18.040;2023-01-16T13:39:01;6.70;99.90
19168;DHT22;9716;53.114;18.040;2023-01-16T13:41:36;6.70;99.90
19168;DHT22;9716;53.114;18.040;2023-01-16T13:44:11;6.70;99.90
19168;DHT22;9716;53.114;18.040;2023-01-16T13:47:03;6.60;99.90
19168;DHT22;9716;53.114;18.040;2023-01-16T13:49:34;6.60;99.90
19168;DHT22;9716;53.114;18.040;2023-01-16T13:52:03;6.50;99.90
19168;DHT22;9716;53.114;18.040;2023-01-16T13:54:37;6.50;99.90
19168;DHT22;9716;53.114;18.040;2023-01-16T13:57:11;6.40;99.90
19168;DHT22;9716;53.114;18.040;2023-01-16T13:59:44;6.40;99.90
19168;DHT22;9716;53.114;18.040;2023-01-16T14:02:40;6.30;99.90
19168;DHT22;9716;53.114;18.040;2023-01-16T14:05:28;6.20;99.90
19168;DHT22;9716;53.114;18.040;2023-01-16T14:11:37;6.10;99.90
19168;DHT22;9716;53.114;18.040;2023-01-16T14:18:00;6.10;99.90
19168;DHT22;9716;53.114;18.040;2023-01-16T14:20:41;6.00;99.90
19168;DHT22;9716;53.114;18.040;2023-01-16T14:23:18;5.90;99.90
19168;DHT22;9716;53.114;18.040;2023-01-16T14:26:07;5.90;99.90
19168;DHT22;9716;53.114;18.040;2023-01-16T14:28:38;5.90;99.90
19168;DHT22;9716;53.114;18.040;2023-01-16T14:31:20;5.80;99.90
19168;DHT22;9716;53.114;18.040;2023-01-16T14:33:50;5.80;99.90
19168;DHT22;9716;53.114;18.040;2023-01-16T14:36:24;5.70;99.90
19168;DHT22;9716;53.114;18.040;2023-01-16T14:38:53;5.70;99.90
19168;DHT22;9716;53.114;18.040;2023-01-16T14:41:31;5.60;99.90
19168;DHT22;9716;53.114;18.040;2023-01-16T14:44:19;5.60;99.90
19168;DHT22;9716;53.114;18.040;2023-01-16T14:47:22;5.50;99.90
19168;DHT22;9716;53.114;18.040;2023-01-16T14:50:10;5.50;99.90
19168;DHT22;9716;53.114;18.040;2023-01-16T14:53:19;5.50;99.90
19168;DHT22;9716;53.114;18.040;2023-01-16T14:56:21;5.40;99.90
19168;DHT22;9716;53.114;18.040;2023-01-16T14:58:55;5.30;99.90
19168;DHT22;9716;53.114;18.040;2023-01-16T15:01:27;5.30;99.90
19168;DHT22;9716;53.114;18.040;2023-01-16T15:04:15;5.20;99.90
19168;DHT22;9716;53.114;18.040;2023-01-16T15:06:49;5.10;99.90
19168;DHT22;9716;53.114;18.040;2023-01-16T15:09:20;5.00;99.90
19168;DHT22;9716;53.114;18.040;2023-01-16T15:11:53;5.00;99.90
19168;DHT22;9716;53.114;18.040;2023-01-16T15:14:24;4.90;99.90
19168;DHT22;9716;53.114;18.040;2023-01-16T15:17:01;4.80;99.90
19168;DHT22;9716;53.114;18.040;2023-01-16T15:23:02;4.70;99.90
19168;DHT22;9716;53.114;18.040;2023-01-16T15:28:52;4.50;99.90
19168;DHT22;9716;53.114;18.040;2023-01-16T15:31:29;4.50;99.90
19168;DHT22;9716;53.114;18.040;2023-01-16T15:34:03;4.50;99.90
19168;DHT22;9716;53.114;18.040;2023-01-16T15:36:36;4.40;99.90
19168;DHT22;9716;53.114;18.040;2023-01-16T15:39:22;4.30;99.90
19168;DHT22;9716;53.114;18.040;2023-01-16T15:41:56;4.30;99.90
19168;DHT22;9716;53.114;18.040;2023-01-16T15:44:48;4.20;99.90
19168;DHT22;9716;53.114;18.040;2023-01-16T15:47:58;4.20;99.90
19168;DHT22;9716;53.114;18.040;2023-01-16T15:50:43;4.20;99.90
19168;DHT22;9716;53.114;18.040;2023-01-16T15:53:13;4.20;99.90
19168;DHT22;9716;53.114;18.040;2023-01-16T15:55:45;4.10;99.90
19168;DHT22;9716;53.114;18.040;2023-01-16T15:58:17;4.10;99.90
19168;DHT22;9716;53.114;18.040;2023-01-16T16:00:55;4.00;99.90
19168;DHT22;9716;53.114;18.040;2023-01-16T16:03:29;4.00;99.90
19168;DHT22;9716;53.114;18.040;2023-01-16T16:06:02;4.00;99.90
19168;DHT22;9716;53.114;18.040;2023-01-16T16:08:32;4.00;99.90
19168;DHT22;9716;53.114;18.040;2023-01-16T16:11:04;3.90;99.90
19168;DHT22;9716;53.114;18.040;2023-01-16T16:13:52;3.90;99.90
19168;DHT22;9716;53.114;18.040;2023-01-16T16:16:24;3.90;99.90
19168;DHT22;9716;53.114;18.040;2023-01-16T16:19:30;3.80;99.90
19168;DHT22;9716;53.114;18.040;2023-01-16T16:22:01;3.80;99.90
19168;DHT22;9716;53.114;18.040;2023-01-16T16:24:53;3.80;99.90
19168;DHT22;9716;53.114;18.040;2023-01-16T16:27:22;3.80;99.90
19168;DHT22;9716;53.114;18.040;2023-01-16T16:29:52;3.70;99.90
19168;DHT22;9716;53.114;18.040;2023-01-16T16:32:22;3.60;99.90
19168;DHT22;9716;53.114;18.040;2023-01-16T16:34:53;3.70;99.90
19168;DHT22;9716;53.114;18.040;2023-01-16T16:37:22;3.70;99.90
19168;DHT22;9716;53.114;18.040;2023-01-16T16:39:54;3.70;99.90
19168;DHT22;9716;53.114;18.040;2023-01-16T16:45:31;3.60;99.90
19168;DHT22;9716;53.114;18.040;2023-01-16T16:48:30;3.70;99.90
19168;DHT22;9716;53.114;18.040;2023-01-16T16:51:26;3.60;99.90
19168;DHT22;9716;53.114;18.040;2023-01-16T16:53:57;3.60;99.90
19168;DHT22;9716;53.114;18.040;2023-01-16T16:56:27;3.60;99.90
19168;DHT22;9716;53.114;18.040;2023-01-16T16:58:57;3.60;99.90
19168;DHT22;9716;53.114;18.040;2023-01-16T17:01:36;3.60;99.90